Thunder radar more information blitzortung!


Radar de pluja more information rain snow radar


Visita la nostra xarxa de llocs de meteo:

Template documentation
and downloads

And another site



No particular awareness of the weather is required.    There are no Weather-warnings

Pagina Historial Weather Underground text

Diari Resum Juliol 12, 2017 Unitats:  Mètric    Imperial   Tant
« Previous Dia
SegĂźent Dia »
Diari Setmana Mensual Anual Personalitzada
  Maxima: Minima: Media:
Temperatura: 36.4 °C 22.1 °C 29 °C
Punt de rosada: 21.6 °C 17.4 °C 19.7 °C
Humitat: 83 % 40 % 59 %
Wind Speed: 22.2 km/h 0.0 km/h 9 km/h
RĂ fegues de vent: 22.2 km/h - -
Vent:- - SE
Pression baro: 1017.8 hPa 1012.8 hPa -
Precipitacions: 0.0 mm    
Historical Graphs
 
 
Dades de taula per Juliol 12, 2017
Temps Temperatura Punt de rosada Pression baro Vent Wind Speed RĂ fegues de vent Humitat Rainfall Rate (Hourly)
00:01 24.1 °C 20.4 °C 1015.8 hPa SE 7.9 km/h 7.9 km/h 80 % 0.0 mm
00:06 24.1 °C 20.4 °C 1015.8 hPa SE 7.4 km/h 7.4 km/h 80 % 0.0 mm
04:15 25.2 °C 20.7 °C 1015.8 hPa SW 1.6 km/h 3.2 km/h 76 % 0.0 mm
04:25 25.7 °C 20.9 °C 1015.8 hPa SSW 1.6 km/h 3.2 km/h 75 % 0.0 mm
04:45 26.2 °C 21.0 °C 1015.8 hPa West 3.2 km/h 4.8 km/h 73 % 0.0 mm
04:55 27.0 °C 21.1 °C 1015.8 hPa West 1.6 km/h 3.2 km/h 70 % 0.0 mm
05:05 27.5 °C 21.1 °C 1016.8 hPa SE 3.2 km/h 4.8 km/h 68 % 0.0 mm
05:15 27.8 °C 21.3 °C 1015.8 hPa South 1.6 km/h 6.4 km/h 68 % 0.0 mm
05:25 28.3 °C 21.1 °C 1015.8 hPa SSW 1.6 km/h 4.8 km/h 65 % 0.0 mm
10:33 28.5 °C 21.0 °C 1015.8 hPa West 5.6 km/h 5.6 km/h 64 % 0.0 mm
10:38 28.7 °C 21.2 °C 1014.8 hPa West 5.6 km/h 5.6 km/h 64 % 0.0 mm
10:43 28.5 °C 21.0 °C 1014.8 hPa WSW 9.3 km/h 9.3 km/h 64 % 0.0 mm
10:48 28.9 °C 21.2 °C 1014.8 hPa WNW 7.4 km/h 7.4 km/h 63 % 0.0 mm
10:53 29.9 °C 21.6 °C 1015.8 hPa South 4.7 km/h 4.7 km/h 61 % 0.0 mm
10:58 29.6 °C 21.3 °C 1015.8 hPa WSW 7.4 km/h 7.4 km/h 61 % 0.0 mm
11:03 29.2 °C 20.9 °C 1015.8 hPa West 9.3 km/h 9.3 km/h 61 % 0.0 mm
11:08 29.1 °C 20.8 °C 1015.8 hPa South 6.1 km/h 6.1 km/h 61 % 0.0 mm
11:13 29.5 °C 20.9 °C 1015.8 hPa SE 9.3 km/h 9.3 km/h 60 % 0.0 mm
11:18 30.1 °C 21.2 °C 1015.8 hPa SSW 7.4 km/h 7.4 km/h 59 % 0.0 mm
11:23 29.8 °C 20.7 °C 1015.8 hPa SSW 5.0 km/h 5.0 km/h 58 % 0.0 mm
11:28 30.8 °C 21.3 °C 1015.8 hPa SW 7.4 km/h 7.4 km/h 57 % 0.0 mm
11:33 31.0 °C 20.9 °C 1015.8 hPa SSW 7.4 km/h 7.4 km/h 55 % 0.0 mm
11:38 30.9 °C 20.8 °C 1015.8 hPa South 10.8 km/h 10.8 km/h 55 % 0.0 mm
11:43 30.8 °C 20.4 °C 1015.8 hPa SSW 7.4 km/h 7.4 km/h 54 % 0.0 mm
11:48 31.0 °C 20.6 °C 1015.8 hPa SSW 9.3 km/h 9.3 km/h 54 % 0.0 mm
11:53 31.4 °C 20.7 °C 1014.8 hPa SW 5.6 km/h 5.6 km/h 53 % 0.0 mm
11:58 31.6 °C 20.6 °C 1014.8 hPa SW 11.1 km/h 11.1 km/h 52 % 0.0 mm
12:03 31.5 °C 20.1 °C 1014.8 hPa WSW 9.3 km/h 9.3 km/h 51 % 0.0 mm
12:08 32.0 °C 20.6 °C 1014.8 hPa West 10.3 km/h 10.3 km/h 51 % 0.0 mm
12:13 32.1 °C 20.1 °C 1014.8 hPa South 5.6 km/h 5.6 km/h 49 % 0.0 mm
12:18 32.2 °C 20.1 °C 1014.8 hPa WNW 11.1 km/h 11.1 km/h 49 % 0.0 mm
12:23 32.1 °C 20.1 °C 1014.8 hPa WSW 7.4 km/h 7.4 km/h 49 % 0.0 mm
12:28 32.4 °C 20.3 °C 1014.8 hPa South 7.6 km/h 7.6 km/h 49 % 0.0 mm
12:33 32.5 °C 20.4 °C 1014.8 hPa WSW 9.3 km/h 9.3 km/h 49 % 0.0 mm
12:38 32.8 °C 20.3 °C 1014.8 hPa SSE 5.8 km/h 5.8 km/h 48 % 0.0 mm
12:43 33.5 °C 20.7 °C 1014.8 hPa SW 11.1 km/h 11.1 km/h 47 % 0.0 mm
12:48 33.3 °C 20.1 °C 1014.8 hPa SSW 5.6 km/h 5.6 km/h 46 % 0.0 mm
12:53 34.0 °C 20.7 °C 1014.8 hPa SE 3.9 km/h 3.9 km/h 46 % 0.0 mm
12:58 33.7 °C 20.5 °C 1014.8 hPa WSW 7.4 km/h 7.4 km/h 46 % 0.0 mm
13:03 33.7 °C 20.5 °C 1014.8 hPa SW 11.4 km/h 11.4 km/h 46 % 0.0 mm
13:08 33.3 °C 20.1 °C 1013.8 hPa SW 5.6 km/h 5.6 km/h 46 % 0.0 mm
13:13 32.9 °C 19.7 °C 1013.8 hPa NNE 7.4 km/h 7.4 km/h 46 % 0.0 mm
13:18 33.7 °C 20.5 °C 1013.8 hPa SW 9.3 km/h 9.3 km/h 46 % 0.0 mm
13:23 33.8 °C 20.2 °C 1013.8 hPa SW 9.3 km/h 9.3 km/h 45 % 0.0 mm
13:28 33.4 °C 19.5 °C 1013.8 hPa NE 3.9 km/h 3.9 km/h 44 % 0.0 mm
13:33 34.0 °C 19.7 °C 1013.8 hPa West 5.6 km/h 5.6 km/h 43 % 0.0 mm
13:38 34.2 °C 20.2 °C 1012.8 hPa SW 12.2 km/h 12.2 km/h 44 % 0.0 mm
13:43 33.7 °C 19.4 °C 1012.8 hPa WSW 4.2 km/h 4.2 km/h 43 % 0.0 mm
13:48 34.7 °C 20.3 °C 1012.8 hPa West 3.7 km/h 3.7 km/h 43 % 0.0 mm
13:53 35.0 °C 20.2 °C 1013.8 hPa West 5.6 km/h 5.6 km/h 42 % 0.0 mm
13:58 34.6 °C 19.4 °C 1013.8 hPa WSW 9.3 km/h 9.3 km/h 41 % 0.0 mm
14:03 34.8 °C 19.6 °C 1013.8 hPa East 9.7 km/h 9.7 km/h 41 % 0.0 mm
14:08 33.9 °C 19.2 °C 1013.8 hPa ESE 5.3 km/h 5.3 km/h 42 % 0.0 mm
14:13 34.4 °C 19.6 °C 1013.8 hPa SW 9.3 km/h 9.3 km/h 42 % 0.0 mm
14:18 34.3 °C 19.6 °C 1013.8 hPa ESE 11.1 km/h 11.1 km/h 42 % 0.0 mm
14:23 34.5 °C 19.3 °C 1013.8 hPa ESE 5.6 km/h 5.6 km/h 41 % 0.0 mm
14:28 34.0 °C 18.9 °C 1013.8 hPa SW 9.3 km/h 9.3 km/h 41 % 0.0 mm
14:33 33.9 °C 19.2 °C 1013.8 hPa ESE 13.0 km/h 13.0 km/h 42 % 0.0 mm
14:38 33.6 °C 18.6 °C 1013.8 hPa ESE 13.0 km/h 13.0 km/h 41 % 0.0 mm
14:43 33.7 °C 19.0 °C 1013.8 hPa East 6.4 km/h 6.4 km/h 42 % 0.0 mm
14:48 33.7 °C 18.6 °C 1013.8 hPa SSE 10.0 km/h 10.0 km/h 41 % 0.0 mm
14:54 33.4 °C 18.3 °C 1013.8 hPa ESE 11.1 km/h 11.1 km/h 41 % 0.0 mm
14:59 33.5 °C 18.4 °C 1013.8 hPa ESE 11.1 km/h 11.1 km/h 41 % 0.0 mm
15:04 34.3 °C 19.2 °C 1013.8 hPa SE 11.1 km/h 11.1 km/h 41 % 0.0 mm
15:09 34.2 °C 19.1 °C 1013.8 hPa ENE 13.0 km/h 13.0 km/h 41 % 0.0 mm
15:14 34.7 °C 19.5 °C 1013.8 hPa East 7.4 km/h 7.4 km/h 41 % 0.0 mm
15:19 33.8 °C 18.7 °C 1013.8 hPa SE 13.0 km/h 13.0 km/h 41 % 0.0 mm
15:24 33.7 °C 18.6 °C 1013.8 hPa ENE 16.7 km/h 16.7 km/h 41 % 0.0 mm
15:29 34.5 °C 19.3 °C 1013.8 hPa WNW 7.4 km/h 7.4 km/h 41 % 0.0 mm
15:34 35.0 °C 19.4 °C 1013.8 hPa SW 9.3 km/h 9.3 km/h 40 % 0.0 mm
15:39 35.5 °C 19.8 °C 1013.8 hPa SW 11.1 km/h 11.1 km/h 40 % 0.0 mm
15:44 36.2 °C 20.4 °C 1013.8 hPa SW 6.4 km/h 6.4 km/h 40 % 0.0 mm
15:49 35.9 °C 20.2 °C 1013.8 hPa SSW 13.0 km/h 13.0 km/h 40 % 0.0 mm
15:54 36.4 °C 20.6 °C 1013.8 hPa South 9.5 km/h 9.5 km/h 40 % 0.0 mm
15:59 36.4 °C 20.6 °C 1013.8 hPa SSW 6.9 km/h 6.9 km/h 40 % 0.0 mm
16:04 36.4 °C 20.6 °C 1013.8 hPa SW 11.4 km/h 11.4 km/h 40 % 0.0 mm
16:09 36.2 °C 20.4 °C 1013.8 hPa WSW 5.6 km/h 5.6 km/h 40 % 0.0 mm
16:14 36.1 °C 20.4 °C 1013.8 hPa WSW 5.6 km/h 5.6 km/h 40 % 0.0 mm
16:19 35.6 °C 19.9 °C 1013.8 hPa SSW 15.6 km/h 15.6 km/h 40 % 0.0 mm
16:35 34.9 °C 19.7 °C 1013.8 hPa SSW 11.1 km/h 11.1 km/h 41 % 0.0 mm
16:40 34.8 °C 19.6 °C 1013.8 hPa SW 9.3 km/h 9.5 km/h 41 % 0.0 mm
16:45 35.2 °C 19.6 °C 1013.8 hPa SW 9.3 km/h 9.3 km/h 40 % 0.0 mm
16:50 35.2 °C 19.6 °C 1013.8 hPa SW 10.3 km/h 10.3 km/h 40 % 0.0 mm
16:55 34.8 °C 19.6 °C 1013.8 hPa SW 9.3 km/h 9.3 km/h 41 % 0.0 mm
17:00 34.5 °C 19.7 °C 1013.8 hPa SW 9.3 km/h 9.3 km/h 42 % 0.0 mm
17:05 34.6 °C 19.8 °C 1013.8 hPa SW 9.3 km/h 9.3 km/h 42 % 0.0 mm
17:10 35.0 °C 19.8 °C 1012.8 hPa SSW 7.4 km/h 7.4 km/h 41 % 0.0 mm
17:15 35.0 °C 19.8 °C 1012.8 hPa SSE 4.7 km/h 4.7 km/h 41 % 0.0 mm
17:20 34.4 °C 19.6 °C 1012.8 hPa East 5.0 km/h 5.0 km/h 42 % 0.0 mm
17:25 33.3 °C 18.7 °C 1013.8 hPa SE 11.9 km/h 11.9 km/h 42 % 0.0 mm
17:30 32.4 °C 18.2 °C 1013.8 hPa SE 9.3 km/h 9.3 km/h 43 % 0.0 mm
17:35 32.4 °C 18.2 °C 1013.8 hPa ESE 11.1 km/h 11.1 km/h 43 % 0.0 mm
17:40 32.4 °C 18.2 °C 1013.8 hPa ENE 9.3 km/h 9.3 km/h 43 % 0.0 mm
17:45 32.1 °C 17.9 °C 1013.8 hPa East 14.8 km/h 14.8 km/h 43 % 0.0 mm
17:50 31.5 °C 17.4 °C 1013.8 hPa SE 14.8 km/h 14.8 km/h 43 % 0.0 mm
17:55 31.1 °C 17.4 °C 1013.8 hPa ESE 20.4 km/h 20.4 km/h 44 % 0.0 mm
17:56 31.1 °C 17.4 °C 1013.8 hPa ESE 20.4 km/h 20.4 km/h 44 % 0.0 mm
18:01 31.1 °C 17.4 °C 1013.8 hPa ESE 17.5 km/h 17.5 km/h 44 % 0.0 mm
18:06 30.8 °C 17.5 °C 1013.8 hPa East 13.0 km/h 13.0 km/h 45 % 0.0 mm
18:11 30.7 °C 17.8 °C 1012.8 hPa ENE 13.0 km/h 13.0 km/h 46 % 0.0 mm
18:16 30.6 °C 17.7 °C 1012.8 hPa ESE 14.5 km/h 14.5 km/h 46 % 0.0 mm
18:21 30.5 °C 17.9 °C 1012.8 hPa ESE 18.5 km/h 18.5 km/h 47 % 0.0 mm
18:26 30.3 °C 17.7 °C 1013.8 hPa ENE 16.7 km/h 16.7 km/h 47 % 0.0 mm
18:31 30.2 °C 18.0 °C 1013.8 hPa East 13.0 km/h 13.0 km/h 48 % 0.0 mm
18:36 29.8 °C 17.9 °C 1013.8 hPa ENE 16.7 km/h 16.7 km/h 49 % 0.0 mm
18:41 29.5 °C 18.0 °C 1013.8 hPa SSW 14.8 km/h 14.8 km/h 50 % 0.0 mm
18:46 29.3 °C 18.1 °C 1013.8 hPa ESE 16.7 km/h 16.7 km/h 51 % 0.0 mm
18:51 29.1 °C 18.2 °C 1013.8 hPa East 22.2 km/h 22.2 km/h 52 % 0.0 mm
18:56 29.0 °C 18.4 °C 1014.8 hPa ENE 16.7 km/h 16.7 km/h 53 % 0.0 mm
19:01 28.7 °C 18.8 °C 1014.8 hPa East 18.5 km/h 18.5 km/h 55 % 0.0 mm
19:06 28.6 °C 18.9 °C 1014.8 hPa ENE 22.2 km/h 22.2 km/h 56 % 0.0 mm
19:11 28.6 °C 18.9 °C 1014.8 hPa ESE 16.7 km/h 16.7 km/h 56 % 0.0 mm
19:15 24.0 °C 19.7 °C 1017.8 hPa NE 3.2 km/h 4.8 km/h 77 % 0.0 mm
19:16 28.4 °C 19.1 °C 1014.8 hPa ESE 13.0 km/h 14.0 km/h 57 % 0.0 mm
19:21 28.2 °C 18.9 °C 1014.8 hPa ESE 9.3 km/h 9.7 km/h 57 % 0.0 mm
19:25 24.0 °C 19.7 °C 1017.8 hPa ENE 3.2 km/h 4.8 km/h 77 % 0.0 mm
19:26 28.1 °C 19.1 °C 1014.8 hPa ENE 20.4 km/h 20.4 km/h 58 % 0.0 mm
19:31 27.9 °C 19.2 °C 1014.8 hPa NNE 16.4 km/h 16.4 km/h 59 % 0.0 mm
19:35 23.9 °C 19.6 °C 1017.8 hPa NE 3.2 km/h 6.4 km/h 77 % 0.0 mm
19:36 27.7 °C 19.2 °C 1014.8 hPa East 16.7 km/h 16.7 km/h 60 % 0.0 mm
19:41 27.7 °C 19.5 °C 1014.8 hPa ESE 14.8 km/h 14.8 km/h 61 % 0.0 mm
19:45 23.8 °C 19.7 °C 1017.8 hPa NE 3.2 km/h 4.8 km/h 78 % 0.0 mm
19:46 27.6 °C 19.4 °C 1014.8 hPa NW 11.1 km/h 11.1 km/h 61 % 0.0 mm
19:51 27.5 °C 19.6 °C 1014.8 hPa SE 11.1 km/h 11.1 km/h 62 % 0.0 mm
19:55 23.8 °C 19.7 °C 1017.8 hPa NNE 1.6 km/h 3.2 km/h 78 % 0.0 mm
19:56 27.3 °C 19.4 °C 1014.8 hPa East 13.0 km/h 13.0 km/h 62 % 0.0 mm
20:01 27.1 °C 19.4 °C 1014.8 hPa ENE 10.3 km/h 10.3 km/h 63 % 0.0 mm
20:05 23.7 °C 19.6 °C 1017.8 hPa NE 1.6 km/h 3.2 km/h 78 % 0.0 mm
20:06 27.1 °C 19.7 °C 1014.8 hPa ESE 13.0 km/h 13.0 km/h 64 % 0.0 mm
20:11 27.0 °C 19.6 °C 1014.8 hPa NNE 16.7 km/h 16.7 km/h 64 % 0.0 mm
20:15 23.7 °C 19.6 °C 1017.8 hPa ENE 1.6 km/h 1.6 km/h 78 % 0.0 mm
20:16 26.8 °C 19.9 °C 1014.8 hPa SE 9.3 km/h 9.3 km/h 66 % 0.0 mm
20:21 26.8 °C 19.9 °C 1014.8 hPa NE 18.5 km/h 18.5 km/h 66 % 0.0 mm
20:25 23.6 °C 19.6 °C 1017.8 hPa Calm     78 % 0.0 mm
20:26 26.7 °C 19.8 °C 1014.8 hPa ENE 16.4 km/h 16.4 km/h 66 % 0.0 mm
20:31 26.5 °C 19.9 °C 1014.8 hPa ESE 16.9 km/h 16.9 km/h 67 % 0.0 mm
20:32 26.5 °C 19.9 °C 1014.8 hPa SE 16.7 km/h 16.7 km/h 67 % 0.0 mm
20:35 23.5 °C 19.4 °C 1017.8 hPa Calm     78 % 0.0 mm
20:37 26.4 °C 20.0 °C 1014.8 hPa SSE 12.6 km/h 12.6 km/h 68 % 0.0 mm
20:42 26.3 °C 19.7 °C 1015.8 hPa East 16.7 km/h 16.7 km/h 67 % 0.0 mm
20:45 23.5 °C 19.7 °C 1017.8 hPa Calm     79 % 0.0 mm
20:47 26.2 °C 19.8 °C 1015.8 hPa ENE 16.7 km/h 16.7 km/h 68 % 0.0 mm
20:52 26.2 °C 19.8 °C 1015.8 hPa ENE 18.5 km/h 18.5 km/h 68 % 0.0 mm
20:55 23.5 °C 19.7 °C 1017.8 hPa Calm   1.6 km/h 79 % 0.0 mm
20:57 26.0 °C 19.6 °C 1015.8 hPa East 11.1 km/h 11.1 km/h 68 % 0.0 mm
21:02 25.9 °C 19.8 °C 1015.8 hPa ENE 20.4 km/h 20.4 km/h 69 % 0.0 mm
21:05 23.4 °C 19.6 °C 1017.8 hPa Calm   3.2 km/h 79 % 0.0 mm
21:07 25.9 °C 19.8 °C 1015.8 hPa ENE 13.0 km/h 13.0 km/h 69 % 0.0 mm
21:13 25.8 °C 19.7 °C 1015.8 hPa ESE 14.8 km/h 14.8 km/h 69 % 0.0 mm
21:15 23.3 °C 19.4 °C 1017.8 hPa Calm     79 % 0.0 mm
21:18 25.7 °C 19.8 °C 1015.8 hPa ENE 16.7 km/h 16.7 km/h 70 % 0.0 mm
21:23 25.7 °C 19.8 °C 1014.8 hPa ESE 16.9 km/h 16.9 km/h 70 % 0.0 mm
21:25 23.2 °C 19.3 °C 1017.8 hPa Calm     79 % 0.0 mm
21:28 25.6 °C 19.7 °C 1014.8 hPa SE 14.8 km/h 14.8 km/h 70 % 0.0 mm
21:33 25.5 °C 19.6 °C 1014.8 hPa ESE 16.7 km/h 16.7 km/h 70 % 0.0 mm
21:35 22.9 °C 19.3 °C 1017.8 hPa Calm     80 % 0.0 mm
21:38 25.5 °C 19.6 °C 1015.8 hPa ENE 9.3 km/h 9.3 km/h 70 % 0.0 mm
21:43 25.4 °C 19.6 °C 1015.8 hPa East 14.8 km/h 14.8 km/h 70 % 0.0 mm
21:45 22.8 °C 19.4 °C 1017.8 hPa Calm     81 % 0.0 mm
21:48 25.4 °C 19.6 °C 1015.8 hPa ESE 13.0 km/h 13.0 km/h 70 % 0.0 mm
21:53 25.3 °C 19.7 °C 1015.8 hPa ESE 13.0 km/h 13.0 km/h 71 % 0.0 mm
21:55 22.8 °C 19.4 °C 1017.8 hPa NE 1.6 km/h 1.6 km/h 81 % 0.0 mm
21:58 25.3 °C 19.7 °C 1015.8 hPa ENE 10.0 km/h 10.0 km/h 71 % 0.0 mm
22:03 25.2 °C 19.6 °C 1015.8 hPa ENE 9.3 km/h 9.3 km/h 71 % 0.0 mm
22:05 22.8 °C 19.6 °C 1017.8 hPa NE 1.6 km/h 1.6 km/h 82 % 0.0 mm
22:08 25.2 °C 19.8 °C 1015.8 hPa ENE 7.4 km/h 7.4 km/h 72 % 0.0 mm
22:13 25.1 °C 19.9 °C 1015.8 hPa NE 9.3 km/h 9.3 km/h 73 % 0.0 mm
22:15 22.8 °C 19.6 °C 1017.8 hPa Calm   1.6 km/h 82 % 0.0 mm
22:18 25.0 °C 19.8 °C 1015.8 hPa East 8.7 km/h 8.7 km/h 73 % 0.0 mm
22:23 24.9 °C 19.9 °C 1016.8 hPa NE 10.0 km/h 10.0 km/h 74 % 0.0 mm
22:25 22.8 °C 19.6 °C 1017.8 hPa Calm     82 % 0.0 mm
22:28 24.8 °C 20.1 °C 1016.8 hPa East 11.1 km/h 11.1 km/h 75 % 0.0 mm
22:33 24.8 °C 20.1 °C 1016.8 hPa ENE 11.1 km/h 11.1 km/h 75 % 0.0 mm
22:35 22.8 °C 19.6 °C 1017.8 hPa ENE 1.6 km/h 1.6 km/h 82 % 0.0 mm
22:38 24.7 °C 19.9 °C 1016.8 hPa ENE 11.1 km/h 11.1 km/h 75 % 0.0 mm
22:43 24.6 °C 19.9 °C 1016.8 hPa East 9.3 km/h 9.3 km/h 75 % 0.0 mm
22:45 22.8 °C 19.6 °C 1017.8 hPa Calm   1.6 km/h 82 % 0.0 mm
22:48 24.6 °C 19.9 °C 1016.8 hPa NNE 6.1 km/h 6.1 km/h 75 % 0.0 mm
22:53 24.5 °C 19.8 °C 1017.8 hPa ENE 5.6 km/h 5.6 km/h 75 % 0.0 mm
22:55 22.7 °C 19.4 °C 1017.8 hPa Calm     82 % 0.0 mm
22:58 24.5 °C 19.8 °C 1017.8 hPa ENE 10.3 km/h 10.3 km/h 75 % 0.0 mm
23:03 24.4 °C 19.7 °C 1017.8 hPa ENE 9.3 km/h 9.3 km/h 75 % 0.0 mm
23:05 22.6 °C 19.4 °C 1017.8 hPa Calm   1.6 km/h 82 % 0.0 mm
23:08 24.4 °C 19.9 °C 1017.8 hPa East 9.5 km/h 9.5 km/h 76 % 0.0 mm
23:13 24.4 °C 19.9 °C 1017.8 hPa ENE 9.3 km/h 9.3 km/h 76 % 0.0 mm
23:15 22.5 °C 19.3 °C 1016.8 hPa Calm     82 % 0.0 mm
23:18 24.4 °C 19.9 °C 1017.8 hPa East 8.7 km/h 8.7 km/h 76 % 0.0 mm
23:23 24.4 °C 19.7 °C 1017.8 hPa ESE 9.3 km/h 9.3 km/h 75 % 0.0 mm
23:25 22.3 °C 19.1 °C 1016.8 hPa Calm     82 % 0.0 mm
23:28 24.4 °C 19.9 °C 1017.8 hPa East 5.6 km/h 5.6 km/h 76 % 0.0 mm
23:33 24.3 °C 19.8 °C 1017.8 hPa ENE 4.2 km/h 4.2 km/h 76 % 0.0 mm
23:35 22.3 °C 19.3 °C 1017.8 hPa Calm     83 % 0.0 mm
23:38 24.3 °C 19.8 °C 1017.8 hPa SE 9.5 km/h 9.5 km/h 76 % 0.0 mm
23:43 24.2 °C 19.7 °C 1017.8 hPa ENE 6.1 km/h 6.1 km/h 76 % 0.0 mm
23:45 22.2 °C 19.2 °C 1016.8 hPa Calm   1.6 km/h 83 % 0.0 mm
23:48 24.2 °C 19.9 °C 1017.8 hPa ESE 9.0 km/h 9.0 km/h 77 % 0.0 mm
23:53 24.2 °C 19.9 °C 1017.8 hPa ENE 5.6 km/h 5.6 km/h 77 % 0.0 mm
23:55 22.1 °C 19.1 °C 1016.8 hPa West 1.6 km/h 1.6 km/h 83 % 0.0 mm
23:58 24.1 °C 19.6 °C 1017.8 hPa NNE 5.6 km/h 5.6 km/h 76 % 0.0 mm
Meteo Sesrovires
Elogis d' Weather Underground - 3.5 mb

Guio original per  Jim McMurry - jmcmurry@mwt.net Adaptat per a la plantilla per  Wim van der Kuil - Leuven-Template.eu

Trobareu la nostra informacio del temps tambe a:

Weather Underground

AWEKAS